Time;durP1;ratioP1;P1;durP2;ratioP2;P2;SDS_P1;SDS_P2;PMS_P1;PMS_P2;Temp;Humidity;BMP_temperature;BMP_pressure;BME280_temperature;BME280_humidity;BME280_pressure;Samples;Min_cycle;Max_cycle;Signal;HPM_P1;HPM_P2
2022/10/31 00:00:19;;;;;;;0.80;0.63;;;11.10;99.90;;;;;;5051947;28;20044;-75
2022/10/31 00:02:44;;;;;;;1.08;0.65;;;11.00;99.90;;;;;;5052068;28;20045;-76
2022/10/31 00:05:10;;;;;;;0.55;0.30;;;11.00;99.90;;;;;;5051589;28;20102;-73
2022/10/31 00:07:35;;;;;;;0.50;0.50;;;11.00;99.90;;;;;;5052965;28;20052;-74
2022/10/31 00:10:01;;;;;;;2.30;0.75;;;10.90;99.90;;;;;;5052015;28;20052;-75
2022/10/31 00:12:27;;;;;;;0.45;0.45;;;10.90;99.90;;;;;;5052002;28;20045;-75
2022/10/31 00:14:52;;;;;;;0.57;0.57;;;10.80;99.90;;;;;;5052676;28;20044;-77
2022/10/31 00:17:18;;;;;;;0.88;0.70;;;10.80;99.90;;;;;;5052203;28;20503;-74
2022/10/31 00:19:44;;;;;;;2.60;1.30;;;10.70;99.90;;;;;;5053627;28;20116;-75
2022/10/31 00:22:09;;;;;;;2.28;1.27;;;10.70;99.90;;;;;;5055751;28;20076;-74
2022/10/31 00:24:35;;;;;;;3.47;1.60;;;10.70;99.90;;;;;;5054948;28;20040;-74
2022/10/31 00:27:01;;;;;;;0.65;0.63;;;10.60;99.90;;;;;;5056903;28;20040;-76
2022/10/31 00:29:26;;;;;;;5.68;3.08;;;10.60;99.90;;;;;;5055109;28;20048;-76
2022/10/31 00:31:52;;;;;;;0.88;0.73;;;10.50;99.90;;;;;;5056038;28;20146;-75
2022/10/31 00:34:27;;;;;;;1.83;1.20;;;10.60;99.90;;;;;;5057343;28;20052;-75
2022/10/31 00:36:56;;;;;;;1.50;1.05;;;10.60;99.90;;;;;;5039546;28;20517;-74
2022/10/31 00:39:22;;;;;;;1.00;0.73;;;10.60;99.90;;;;;;5056122;28;20049;-73
2022/10/31 00:41:47;;;;;;;2.33;1.05;;;10.60;99.90;;;;;;5056648;28;20120;-75
2022/10/31 00:44:13;;;;;;;1.17;0.98;;;10.50;99.90;;;;;;5055010;28;20064;-74
2022/10/31 00:46:38;;;;;;;1.08;0.98;;;10.50;99.90;;;;;;5054975;28;20045;-73
2022/10/31 00:49:04;;;;;;;2.60;1.95;;;10.60;99.90;;;;;;5054908;28;20094;-75
2022/10/31 00:51:30;;;;;;;1.02;0.77;;;10.50;99.90;;;;;;5054289;28;20061;-77
2022/10/31 00:53:55;;;;;;;0.57;0.43;;;10.60;99.90;;;;;;5055974;28;20135;-74
2022/10/31 00:56:21;;;;;;;0.17;0.17;;;10.50;99.90;;;;;;5054543;28;20048;-76
2022/10/31 00:58:47;;;;;;;2.28;2.05;;;10.60;99.90;;;;;;5055382;28;20048;-76
2022/10/31 01:01:12;;;;;;;0.52;0.38;;;10.60;99.90;;;;;;5055108;28;20045;-74
2022/10/31 01:03:39;;;;;;;0.45;0.45;;;10.60;99.90;;;;;;5054871;28;20056;-77
2022/10/31 01:06:06;;;;;;;0.60;0.60;;;10.60;99.90;;;;;;5055668;28;20063;-74
2022/10/31 01:08:33;;;;;;;0.70;0.55;;;10.60;99.90;;;;;;5054933;28;20033;-73
2022/10/31 01:11:03;;;;;;;2.80;1.38;;;10.50;99.90;;;;;;5055866;28;20067;-74
2022/10/31 01:13:29;;;;;;;3.83;2.05;;;10.40;99.90;;;;;;5054578;28;20442;-76
2022/10/31 01:15:56;;;;;;;0.93;0.90;;;10.40;99.90;;;;;;5054234;28;20073;-75
2022/10/31 01:18:23;;;;;;;0.22;0.22;;;10.40;99.90;;;;;;5053197;28;20095;-74
2022/10/31 01:20:57;;;;;;;0.52;0.32;;;10.40;99.90;;;;;;5054783;28;20045;-75
2022/10/31 01:23:23;;;;;;;2.97;1.90;;;10.40;99.90;;;;;;5053748;28;20199;-74
2022/10/31 01:25:49;;;;;;;26.08;3.00;;;10.40;99.90;;;;;;5053522;28;20095;-74
2022/10/31 01:28:14;;;;;;;5.50;4.28;;;10.50;99.90;;;;;;5054593;28;20044;-74
2022/10/31 01:30:40;;;;;;;4.07;3.67;;;10.50;99.90;;;;;;5054468;28;20152;-76
2022/10/31 01:33:05;;;;;;;8.88;5.07;;;10.50;99.90;;;;;;5052801;28;20064;-74
2022/10/31 01:35:31;;;;;;;4.55;3.65;;;10.50;99.90;;;;;;5053142;28;20049;-76
2022/10/31 01:37:59;;;;;;;7.38;5.72;;;10.60;99.90;;;;;;5053032;28;20037;-75
2022/10/31 01:40:29;;;;;;;3.15;2.38;;;10.60;99.90;;;;;;5053081;28;20144;-75
2022/10/31 01:42:55;;;;;;;4.40;2.88;;;10.70;99.90;;;;;;5052795;28;20053;-76
2022/10/31 01:45:21;;;;;;;2.63;2.22;;;10.70;99.90;;;;;;5052013;28;20060;-75
2022/10/31 01:47:48;;;;;;;4.15;2.38;;;10.70;99.90;;;;;;5052208;28;20477;-76
2022/10/31 01:50:29;;;;;;;4.50;3.45;;;10.60;99.90;;;;;;5052275;28;20088;-74
2022/10/31 01:52:56;;;;;;;4.93;3.10;;;10.70;99.90;;;;;;5052103;28;20063;-75
2022/10/31 01:55:29;;;;;;;8.75;2.95;;;10.70;99.90;;;;;;5019621;28;20053;-74
2022/10/31 01:57:59;;;;;;;2.92;2.35;;;10.60;99.90;;;;;;5053508;28;20052;-76
2022/10/31 02:00:25;;;;;;;5.95;4.97;;;10.50;99.90;;;;;;5053038;28;20084;-75
2022/10/31 02:02:51;;;;;;;3.85;3.15;;;10.50;99.90;;;;;;5052939;28;20104;-75
2022/10/31 02:05:24;;;;;;;4.82;3.63;;;10.50;99.90;;;;;;5052801;28;20049;-74
2022/10/31 02:08:02;;;;;;;3.22;2.75;;;10.40;99.90;;;;;;5052938;28;20136;-75
2022/10/31 02:10:30;;;;;;;2.50;2.20;;;10.40;99.90;;;;;;5053171;28;20100;-75
2022/10/31 02:12:58;;;;;;;4.45;3.13;;;10.40;99.90;;;;;;5051912;28;20053;-76
2022/10/31 02:15:24;;;;;;;2.88;2.40;;;10.30;99.90;;;;;;5052403;28;20056;-74
2022/10/31 02:17:49;;;;;;;2.72;2.22;;;10.30;99.90;;;;;;5017205;28;20048;-76
2022/10/31 02:20:19;;;;;;;3.38;2.22;;;10.20;99.90;;;;;;5034051;28;20107;-74
2022/10/31 02:23:38;;;;;;;2.38;2.17;;;10.20;99.90;;;;;;5051507;28;20067;-74
2022/10/31 02:26:28;;;;;;;2.50;1.73;;;10.10;99.90;;;;;;4992207;28;20058;-75
2022/10/31 02:29:18;;;;;;;0.77;0.65;;;10.10;99.90;;;;;;5033265;28;20046;-75
2022/10/31 02:34:34;;;;;;;2.78;2.53;;;10.10;99.90;;;;;;5545140;22;20530;-81
2022/10/31 02:37:29;;;;;;;1.17;1.02;;;10.00;99.90;;;;;;5040305;28;20051;-81
2022/10/31 02:40:13;;;;;;;0.00;0.00;;;10.00;99.90;;;;;;5072707;28;20111;-82
2022/10/31 02:43:00;;;;;;;1.92;1.67;;;9.90;99.90;;;;;;5068675;28;20036;-80
2022/10/31 02:45:45;;;;;;;1.73;1.25;;;9.80;99.90;;;;;;5060275;28;20083;-82
2022/10/31 02:48:16;;;;;;;1.05;0.70;;;9.70;99.90;;;;;;5058744;28;20472;-81
2022/10/31 02:50:49;;;;;;;1.30;0.65;;;9.60;99.90;;;;;;5072375;28;20047;-82
2022/10/31 02:53:16;;;;;;;0.93;0.85;;;9.60;99.90;;;;;;5076011;28;20052;-81
2022/10/31 02:55:54;;;;;;;0.30;0.30;;;9.50;99.90;;;;;;5061314;28;20040;-81
2022/10/31 02:58:23;;;;;;;3.25;2.17;;;9.50;99.90;;;;;;5072768;28;20040;-81
2022/10/31 03:00:58;;;;;;;0.88;0.75;;;9.40;99.90;;;;;;5122057;22;20083;-89
2022/10/31 03:03:43;;;;;;;;;;;9.40;99.90;;;;;;5045534;28;20062;-89
2022/10/31 03:06:11;;;;;;;0.60;0.60;;;9.40;99.90;;;;;;5062131;28;19925;-90
2022/10/31 03:08:54;;;;;;;0.35;0.35;;;10.50;99.90;;;;;;5078865;28;20047;-90
2022/10/31 03:11:29;;;;;;;1.63;0.75;;;9.80;99.90;;;;;;5063541;28;20055;-89
2022/10/31 03:14:12;;;;;;;1.90;1.77;;;9.50;99.90;;;;;;5064904;28;20056;-89
2022/10/31 03:16:48;;;;;;;2.10;0.50;;;9.50;99.90;;;;;;5064566;28;20086;-88
2022/10/31 03:19:26;;;;;;;0.17;0.17;;;9.40;99.90;;;;;;5061872;28;20079;-89
2022/10/31 03:22:07;;;;;;;1.08;0.88;;;9.30;99.90;;;;;;5078867;28;20048;-88
2022/10/31 03:24:37;;;;;;;0.15;0.15;;;9.30;99.90;;;;;;5062082;28;20041;-89
2022/10/31 03:27:04;;;;;;;0.45;0.45;;;9.20;99.90;;;;;;5046133;28;20494;-89
2022/10/31 03:29:35;;;;;;;0.45;0.43;;;9.30;99.90;;;;;;5062261;28;20441;-89
2022/10/31 03:32:30;;;;;;;0.80;0.73;;;10.20;99.90;;;;;;5060763;28;20037;-90
2022/10/31 03:35:00;;;;;;;1.17;0.63;;;9.20;99.90;;;;;;5058124;28;20063;-89
2022/10/31 03:37:29;;;;;;;0.85;0.75;;;10.00;99.90;;;;;;5059889;28;20045;-88
2022/10/31 03:39:59;;;;;;;0.60;0.60;;;9.00;99.90;;;;;;5061012;28;20052;-89
2022/10/31 03:42:29;;;;;;;1.27;1.17;;;9.10;99.90;;;;;;5061673;28;20079;-89
2022/10/31 03:45:03;;;;;;;0.63;0.63;;;9.80;99.90;;;;;;5059929;28;20053;-89
2022/10/31 03:47:29;;;;;;;1.08;0.57;;;9.60;99.90;;;;;;5061716;28;20047;-90
2022/10/31 03:50:00;;;;;;;2.63;1.45;;;9.30;99.90;;;;;;5077371;28;20044;-90
2022/10/31 03:52:46;;;;;;;1.58;0.80;;;9.40;99.90;;;;;;5058629;28;20111;-90
2022/10/31 03:55:21;;;;;;;;;;;9.90;99.90;;;;;;5078477;28;20052;-90
2022/10/31 03:58:10;;;;;;;0.15;0.13;;;8.60;99.90;;;;;;5060993;28;19920;-90
2022/10/31 04:00:41;;;;;;;0.55;0.25;;;8.60;99.90;;;;;;5081603;28;20058;-89
2022/10/31 04:03:22;;;;;;;0.20;0.20;;;8.40;99.90;;;;;;5082284;28;20560;-89
2022/10/31 04:05:57;;;;;;;0.52;0.50;;;8.40;99.90;;;;;;5081699;28;20040;-89
2022/10/31 04:08:27;;;;;;;1.08;0.52;;;9.30;99.90;;;;;;5063778;28;20036;-90
2022/10/31 04:10:55;;;;;;;2.22;1.35;;;8.30;99.90;;;;;;5064279;28;20052;-90
2022/10/31 04:13:29;;;;;;;2.03;0.63;;;8.30;99.90;;;;;;5063291;28;20040;-89
2022/10/31 04:15:55;;;;;;;0.25;0.25;;;8.70;99.90;;;;;;5064873;28;20040;-89
2022/10/31 04:18:23;;;;;;;1.00;0.52;;;8.80;99.90;;;;;;5063649;28;20082;-90
2022/10/31 04:20:58;;;;;;;0.90;0.65;;;7.50;99.90;;;;;;5079048;28;20490;-90
2022/10/31 04:23:26;;;;;;;0.60;0.55;;;8.10;99.90;;;;;;5076562;28;20041;-89
2022/10/31 04:25:51;;;;;;;0.25;0.17;;;8.90;99.90;;;;;;5060049;28;20040;-90
2022/10/31 04:28:18;;;;;;;0.43;0.43;;;8.00;99.90;;;;;;5060192;28;20066;-90
2022/10/31 04:30:43;;;;;;;0.45;0.35;;;8.00;99.90;;;;;;5061180;28;20051;-89
2022/10/31 04:33:09;;;;;;;0.75;0.50;;;7.90;99.90;;;;;;5059841;28;20135;-89
2022/10/31 04:35:34;;;;;;;0.77;0.77;;;7.90;99.90;;;;;;5062762;28;20044;-88
2022/10/31 04:38:00;;;;;;;0.35;0.35;;;7.90;99.90;;;;;;5095485;28;20043;-88
2022/10/31 04:40:26;;;;;;;1.20;1.13;;;7.90;99.90;;;;;;5078183;28;20108;-88
2022/10/31 04:42:51;;;;;;;0.40;0.40;;;7.90;99.90;;;;;;5078215;28;20031;-88
2022/10/31 04:45:17;;;;;;;1.80;1.25;;;7.90;99.90;;;;;;5095370;28;20024;-89
2022/10/31 04:47:43;;;;;;;1.58;1.30;;;7.80;99.90;;;;;;5076097;28;20048;-90
2022/10/31 04:50:08;;;;;;;1.33;0.75;;;7.80;99.90;;;;;;5057492;28;20049;-89
2022/10/31 04:52:40;;;;;;;0.05;0.03;;;7.80;99.90;;;;;;5058584;28;20046;-90
2022/10/31 04:55:06;;;;;;;1.25;0.88;;;7.80;99.90;;;;;;5076064;28;20059;-89
2022/10/31 04:57:31;;;;;;;3.25;0.43;;;7.80;99.90;;;;;;5059546;28;20062;-90
2022/10/31 04:59:57;;;;;;;0.00;0.00;;;7.80;99.90;;;;;;5059666;28;20091;-90
2022/10/31 05:02:22;;;;;;;0.90;0.88;;;7.70;99.90;;;;;;5077422;28;20123;-90
2022/10/31 05:04:48;;;;;;;0.20;0.20;;;7.70;99.90;;;;;;5078042;28;20101;-90
2022/10/31 05:07:13;;;;;;;0.38;0.30;;;7.70;99.90;;;;;;5078013;28;20040;-90
2022/10/31 05:09:41;;;;;;;0.10;0.10;;;7.60;99.90;;;;;;5060873;28;20063;-91
2022/10/31 05:12:07;;;;;;;0.00;0.00;;;8.70;99.90;;;;;;5062905;28;20097;-90
2022/10/31 05:14:32;;;;;;;0.32;0.32;;;8.70;99.90;;;;;;5079814;28;20045;-90
2022/10/31 05:16:58;;;;;;;0.47;0.40;;;7.50;99.90;;;;;;5079822;28;20041;-90
2022/10/31 05:19:24;;;;;;;0.65;0.63;;;7.60;99.90;;;;;;5060520;28;20135;-90
2022/10/31 05:21:52;;;;;;;0.55;0.55;;;7.50;99.90;;;;;;5060874;28;20540;-90
2022/10/31 05:24:17;;;;;;;0.40;0.40;;;8.50;99.90;;;;;;5059913;28;20080;-90
2022/10/31 05:26:43;;;;;;;11.52;2.35;;;8.30;99.90;;;;;;5061043;28;20041;-90
2022/10/31 05:29:09;;;;;;;0.30;0.25;;;8.10;99.90;;;;;;5061885;28;20108;-89
2022/10/31 05:31:34;;;;;;;1.65;0.30;;;8.60;99.90;;;;;;5059802;28;20049;-90
2022/10/31 05:34:00;;;;;;;0.75;0.75;;;8.00;99.90;;;;;;5062678;28;20059;-90
2022/10/31 05:36:26;;;;;;;0.30;0.30;;;7.80;99.90;;;;;;5078339;28;20049;-90
2022/10/31 05:38:54;;;;;;;0.57;0.57;;;8.40;99.90;;;;;;5078056;28;20072;-90
2022/10/31 05:41:20;;;;;;;0.50;0.32;;;7.40;99.90;;;;;;5078326;28;20364;-90
2022/10/31 05:43:46;;;;;;;0.40;0.40;;;7.50;99.90;;;;;;5060827;28;20052;-90
2022/10/31 05:46:11;;;;;;;0.28;0.28;;;7.40;99.90;;;;;;5078374;28;20044;-90
2022/10/31 05:48:46;;;;;;;1.00;0.98;;;8.40;99.90;;;;;;5060772;28;20044;-90
2022/10/31 05:51:12;;;;;;;0.15;0.15;;;7.90;99.90;;;;;;5060901;28;20405;-91
2022/10/31 05:53:38;;;;;;;0.20;0.20;;;7.40;99.90;;;;;;5060028;28;20055;-91
2022/10/31 05:56:07;;;;;;;0.30;0.30;;;6.80;99.90;;;;;;5074857;28;20052;-90
2022/10/31 05:58:33;;;;;;;2.20;0.95;;;7.50;99.90;;;;;;5056695;28;20049;-90
2022/10/31 06:01:03;;;;;;;0.38;0.38;;;8.50;99.90;;;;;;5056162;28;20143;-90
2022/10/31 06:03:29;;;;;;;0.93;0.85;;;7.50;99.90;;;;;;5054562;28;20114;-90
2022/10/31 06:05:54;;;;;;;0.90;0.85;;;7.80;99.90;;;;;;5055585;28;20052;-90
2022/10/31 06:08:23;;;;;;;0.10;0.10;;;7.40;99.90;;;;;;5058187;28;20100;-90
2022/10/31 06:10:49;;;;;;;1.67;0.47;;;7.70;99.90;;;;;;5059638;28;20046;-90
2022/10/31 06:13:14;;;;;;;1.73;0.70;;;8.10;99.90;;;;;;5076218;28;20119;-90
2022/10/31 06:15:41;;;;;;;0.65;0.65;;;8.20;99.90;;;;;;5076092;28;20052;-91
2022/10/31 06:18:11;;;;;;;1.52;0.70;;;8.30;99.90;;;;;;5075509;28;20048;-90
2022/10/31 06:20:36;;;;;;;0.57;0.57;;;8.10;99.90;;;;;;5058266;28;20075;-90
2022/10/31 06:23:03;;;;;;;0.50;0.47;;;8.00;99.90;;;;;;5056696;28;20045;-91
2022/10/31 06:25:28;;;;;;;0.73;0.70;;;7.40;99.90;;;;;;5075662;28;20041;-90
2022/10/31 06:27:54;;;;;;;1.55;0.52;;;7.50;99.90;;;;;;5058597;28;20125;-90
2022/10/31 06:30:20;;;;;;;0.38;0.38;;;7.50;99.90;;;;;;5077192;28;20045;-90
2022/10/31 06:32:46;;;;;;;1.08;1.05;;;7.50;99.90;;;;;;5060784;28;20040;-90
2022/10/31 06:35:11;;;;;;;0.68;0.50;;;7.50;99.90;;;;;;5060439;28;20045;-90
2022/10/31 06:37:38;;;;;;;1.67;1.13;;;7.50;99.90;;;;;;5076706;28;20044;-90
2022/10/31 06:40:04;;;;;;;0.05;0.05;;;7.50;99.90;;;;;;5040029;28;20067;-90
2022/10/31 06:42:30;;;;;;;0.52;0.52;;;7.50;99.90;;;;;;5075228;28;20103;-91
2022/10/31 06:44:55;;;;;;;0.10;0.10;;;8.40;99.90;;;;;;5057837;28;20079;-90
2022/10/31 06:47:21;;;;;;;0.52;0.38;;;7.60;99.90;;;;;;5054261;28;20028;-89
2022/10/31 06:49:47;;;;;;;0.28;0.28;;;8.00;99.90;;;;;;5052981;28;20052;-89
2022/10/31 06:52:12;;;;;;;1.08;0.98;;;7.70;99.90;;;;;;5053036;28;20095;-91
2022/10/31 06:54:38;;;;;;;1.05;0.98;;;7.90;99.90;;;;;;5067239;28;20055;-91
2022/10/31 06:57:03;;;;;;;0.77;0.60;;;8.00;99.90;;;;;;5072281;28;20041;-92
2022/10/31 06:59:32;;;;;;;2.85;0.52;;;8.80;99.90;;;;;;5086676;28;20059;-91
2022/10/31 07:01:58;;;;;;;1.55;0.63;;;8.90;99.90;;;;;;5072329;28;20495;-91
2022/10/31 07:04:24;;;;;;;0.68;0.63;;;9.00;99.90;;;;;;5085857;28;20044;-88
2022/10/31 07:06:53;;;;;;;0.30;0.30;;;8.10;99.90;;;;;;5053022;28;20510;-89
2022/10/31 07:09:19;;;;;;;0.47;0.47;;;8.10;99.90;;;;;;5068901;28;20059;-88
2022/10/31 07:11:47;;;;;;;0.65;0.52;;;8.20;99.90;;;;;;5058074;28;20060;-90
2022/10/31 07:14:12;;;;;;;0.30;0.30;;;8.50;99.90;;;;;;5080436;28;20105;-90
2022/10/31 07:16:38;;;;;;;0.60;0.57;;;8.10;99.90;;;;;;5061161;28;20064;-89
2022/10/31 07:19:04;;;;;;;1.27;1.17;;;8.10;99.90;;;;;;5061054;28;20601;-90
2022/10/31 07:21:32;;;;;;;0.00;0.00;;;9.20;99.90;;;;;;5079331;28;20036;-90
2022/10/31 07:24:02;;;;;;;2.85;1.05;;;8.10;99.90;;;;;;5079057;28;20040;-90
2022/10/31 07:26:28;;;;;;;1.45;1.20;;;9.30;99.90;;;;;;5079768;28;20040;-90
2022/10/31 07:28:53;;;;;;;0.35;0.35;;;7.40;99.90;;;;;;5079646;28;20044;-90
2022/10/31 07:31:25;;;;;;;2.00;0.55;;;9.40;99.90;;;;;;5077737;28;20107;-90
2022/10/31 07:33:51;;;;;;;0.68;0.68;;;9.10;99.90;;;;;;5076532;28;20113;-90
2022/10/31 07:36:17;;;;;;;0.93;0.77;;;8.50;99.90;;;;;;5081027;28;20100;-90
2022/10/31 07:38:42;;;;;;;1.15;0.90;;;8.70;99.90;;;;;;5063909;28;20049;-90
2022/10/31 07:41:09;;;;;;;1.13;0.63;;;9.20;99.90;;;;;;5081836;28;20123;-90
2022/10/31 07:43:35;;;;;;;1.73;1.25;;;9.00;99.90;;;;;;5079770;28;20048;-90
2022/10/31 07:46:00;;;;;;;0.77;0.77;;;9.00;99.90;;;;;;5080033;28;20045;-90
2022/10/31 07:48:26;;;;;;;0.88;0.52;;;8.90;99.90;;;;;;5063742;28;20041;-90
2022/10/31 07:50:51;;;;;;;1.30;1.20;;;8.70;99.90;;;;;;5064129;28;20044;-90
2022/10/31 07:53:17;;;;;;;1.33;1.23;;;9.50;99.90;;;;;;5063550;28;20046;-90
2022/10/31 07:55:43;;;;;;;0.47;0.47;;;8.90;99.90;;;;;;5063285;28;20060;-90
2022/10/31 07:58:12;;;;;;;4.18;1.65;;;9.80;99.90;;;;;;5063570;28;20123;-90
2022/10/31 08:00:42;;;;;;;0.20;0.20;;;8.90;99.90;;;;;;5062699;28;20406;-90
2022/10/31 08:03:10;;;;;;;0.30;0.30;;;9.00;99.90;;;;;;5063706;28;20080;-90
2022/10/31 08:05:36;;;;;;;0.98;0.88;;;10.30;99.90;;;;;;5082495;28;20078;-90
2022/10/31 08:08:13;;;;;;;;;;;;;;;;;;;;;
2022/10/31 08:10:45;;;;;;;0.85;0.82;;;9.20;99.90;;;;;;5063572;28;20074;-90
2022/10/31 08:13:21;;;;;;;0.22;0.22;;;9.50;99.90;;;;;;5083661;28;20131;-89
2022/10/31 08:15:50;;;;;;;;;;;9.40;99.90;;;;;;5064505;28;20115;-90
2022/10/31 08:18:16;;;;;;;5.47;0.73;;;9.60;99.90;;;;;;5085070;28;19915;-90
2022/10/31 08:20:42;;;;;;;0.00;0.00;;;9.70;99.90;;;;;;5064405;28;20052;-90
2022/10/31 08:23:21;;;;;;;1.35;1.25;;;10.60;99.90;;;;;;5082521;28;20048;-90
2022/10/31 08:25:49;;;;;;;0.70;0.50;;;11.00;99.90;;;;;;5083516;28;20044;-90
2022/10/31 08:28:28;;;;;;;1.35;1.25;;;10.80;99.90;;;;;;5082690;28;20051;-90
2022/10/31 08:30:57;;;;;;;1.27;1.15;;;10.50;99.90;;;;;;5063677;28;20584;-90
2022/10/31 08:33:30;;;;;;;1.50;1.40;;;11.10;99.90;;;;;;5082049;28;20047;-90
2022/10/31 08:36:11;;;;;;;1.17;1.02;;;11.60;99.90;;;;;;5065818;28;20051;-90
2022/10/31 08:38:39;;;;;;;1.15;0.93;;;10.30;99.90;;;;;;5050875;28;20134;-90
2022/10/31 08:41:05;;;;;;;1.80;1.08;;;11.00;99.90;;;;;;5066910;28;20048;-90
2022/10/31 08:43:31;;;;;;;5.32;1.42;;;11.60;99.90;;;;;;5084465;28;20106;-90
2022/10/31 08:46:01;;;;;;;0.50;0.50;;;12.10;99.90;;;;;;5084146;28;20045;-90
2022/10/31 08:48:38;;;;;;;1.33;0.65;;;10.50;99.90;;;;;;5086035;28;20131;-90
2022/10/31 08:51:04;;;;;;;1.05;0.90;;;12.30;99.90;;;;;;5066983;28;20398;-90
2022/10/31 08:53:37;;;;;;;0.32;0.32;;;11.50;99.90;;;;;;5072196;28;20036;-90
2022/10/31 08:56:12;;;;;;;1.98;1.65;;;11.90;99.90;;;;;;5087102;28;20144;-91
2022/10/31 08:58:48;;;;;;;1.13;1.00;;;11.60;99.90;;;;;;5053367;28;20083;-90
2022/10/31 09:01:13;;;;;;;12.02;0.57;;;12.40;99.90;;;;;;5088258;28;20060;-91
2022/10/31 09:03:39;;;;;;;6.03;1.80;;;11.60;99.90;;;;;;5070692;28;20159;-90
2022/10/31 09:06:08;;;;;;;3.50;1.70;;;11.70;99.90;;;;;;5088498;28;20039;-90
2022/10/31 09:09:07;;;;;;;;;;;;;;;;;;;;;
2022/10/31 09:11:33;;;;;;;2.22;1.30;;;12.10;99.90;;;;;;5071188;28;20079;-90
2022/10/31 09:14:27;;;;;;;0.65;0.60;;;11.70;99.90;;;;;;5087770;28;20044;-90
2022/10/31 09:17:37;;;;;;;1.75;1.30;;;11.80;99.90;;;;;;5073548;28;20045;-90
2022/10/31 09:20:17;;;;;;;;;;;;;;;;;;;;;
2022/10/31 09:23:11;;;;;;;;;;;;;;;;;;;;;
2022/10/31 09:26:03;;;;;;;3.20;1.90;;;12.20;99.90;;;;;;5078001;28;20059;-90
2022/10/31 09:28:32;;;;;;;2.38;1.55;;;12.70;99.90;;;;;;5051801;28;20086;-90
2022/10/31 09:31:31;;;;;;;;;;;;;;;;;;;;;
2022/10/31 09:34:11;;;;;;;0.57;0.57;;;12.20;99.90;;;;;;5066107;28;20029;-90
2022/10/31 09:36:49;;;;;;;0.70;0.70;;;12.70;99.90;;;;;;5071385;28;20036;-90
2022/10/31 09:42:46;;;;;;;4.38;0.95;;;12.90;99.90;;;;;;5062790;28;20112;-90
2022/10/31 09:45:33;;;;;;;2.17;1.92;;;12.00;99.90;;;;;;5092556;28;20104;-90
2022/10/31 09:48:14;;;;;;;;;;;12.00;99.90;;;;;;5091550;28;20037;-90
2022/10/31 09:51:08;;;;;;;;;;;;;;;;;;;;;
2022/10/31 09:57:03;;;;;;;0.95;0.90;;;11.80;99.90;;;;;;5061192;28;20068;-90
2022/10/31 09:59:56;;;;;;;2.33;1.90;;;12.00;99.90;;;;;;5055594;28;20111;-90
2022/10/31 10:03:08;;;;;;;;;;;;;;;;;;;;;
2022/10/31 10:06:19;;;;;;;2.28;1.23;;;11.50;99.90;;;;;;5070659;28;20066;-90
2022/10/31 10:08:39;;;;;;;4.50;2.35;;;13.40;99.90;;;;;;5068463;28;20060;-91
2022/10/31 10:11:17;;;;;;;2.40;2.20;;;12.40;99.90;;;;;;5069475;28;20040;-91
2022/10/31 10:14:04;;;;;;;2.47;1.45;;;12.40;99.90;;;;;;5070861;28;20197;-91
2022/10/31 10:16:50;;;;;;;1.08;0.98;;;12.50;99.90;;;;;;5089448;28;20044;-90
2022/10/31 10:19:33;;;;;;;1.52;1.42;;;12.60;99.90;;;;;;5088943;28;20059;-90
2022/10/31 10:22:11;;;;;;;1.83;1.45;;;13.50;99.90;;;;;;5090880;28;20044;-91
2022/10/31 10:25:08;;;;;;;;;;;;;;;;;;;;;
2022/10/31 10:28:00;;;;;;;1.17;0.68;;;12.70;99.90;;;;;;5074744;28;20044;-90
2022/10/31 10:31:24;;;;;;;6.00;1.90;;;12.70;99.90;;;;;;5090972;28;20059;-91
2022/10/31 10:34:38;;;;;;;;;;;;;;;;;;;;;
2022/10/31 10:37:40;;;;;;;;;;;;;;;;;;;;;
2022/10/31 10:40:42;;;;;;;;;;;;;;;;;;;;;
2022/10/31 10:43:27;;;;;;;0.88;0.85;;;13.20;99.90;;;;;;5074346;28;20040;-90
2022/10/31 10:48:53;;;;;;;0.38;0.38;;;13.00;99.90;;;;;;5074844;28;20028;-90
2022/10/31 10:51:39;;;;;;;1.13;1.05;;;13.10;99.90;;;;;;5074465;28;20592;-90
2022/10/31 10:54:32;;;;;;;2.63;1.23;;;14.30;99.90;;;;;;5057933;28;20032;-90
2022/10/31 10:57:21;;;;;;;0.85;0.80;;;13.40;99.90;;;;;;5074851;28;20087;-90
2022/10/31 10:59:47;;;;;;;3.17;0.63;;;13.60;99.90;;;;;;5072964;28;20060;-90
2022/10/31 11:02:22;;;;;;;0.95;0.75;;;13.70;99.90;;;;;;5074993;28;20058;-90
2022/10/31 11:05:03;;;;;;;;;;;;;;;;;;;;;
2022/10/31 11:07:42;;;;;;;0.57;0.50;;;13.90;99.90;;;;;;5090939;28;20032;-91
2022/10/31 11:10:16;;;;;;;0.85;0.63;;;14.10;99.90;;;;;;5089551;28;20049;-91
2022/10/31 11:13:00;;;;;;;2.63;1.25;;;14.10;99.90;;;;;;5090494;28;20039;-90
2022/10/31 11:15:27;;;;;;;3.92;1.17;;;14.70;99.90;;;;;;5073938;28;20036;-90
2022/10/31 11:17:55;;;;;;;0.45;0.45;;;14.70;99.90;;;;;;5090949;28;20028;-90
2022/10/31 11:20:50;;;;;;;0.95;0.82;;;14.70;99.90;;;;;;5091219;28;20043;-90
2022/10/31 11:23:23;;;;;;;4.20;0.47;;;14.30;99.90;;;;;;5071257;28;20037;-90
2022/10/31 11:25:55;;;;;;;0.52;0.52;;;14.20;99.90;;;;;;5073124;28;20041;-90
2022/10/31 11:28:21;;;;;;;0.63;0.40;;;14.30;99.90;;;;;;5073330;28;20028;-89
2022/10/31 11:30:58;;;;;;;0.65;0.47;;;13.50;99.90;;;;;;5073277;28;20071;-90
2022/10/31 11:33:27;;;;;;;0.80;0.80;;;14.50;99.90;;;;;;5087770;28;20040;-91
2022/10/31 11:36:28;;;;;;;0.77;0.63;;;15.60;99.90;;;;;;5087428;28;20051;-90
2022/10/31 11:39:13;;;;;;;;;;;;;;;;;;;;;
2022/10/31 11:41:54;;;;;;;;;;;;;;;;;;;;;
2022/10/31 11:44:37;;;;;;;1.65;0.98;;;15.00;1.00;;;;;;5071135;28;20279;-90
2022/10/31 11:47:05;;;;;;;1.27;0.85;;;15.20;99.90;;;;;;5070016;28;20021;-90
2022/10/31 11:49:41;;;;;;;0.77;0.20;;;15.80;1.00;;;;;;5090397;28;20076;-89
2022/10/31 11:52:30;;;;;;;1.70;0.52;;;15.60;91.30;;;;;;5088296;28;20051;-90
2022/10/31 11:55:03;;;;;;;1.02;0.32;;;16.50;56.50;;;;;;5086979;28;20048;-89
2022/10/31 11:57:42;;;;;;;3.63;1.00;;;16.70;99.90;;;;;;5087741;28;20029;-89
2022/10/31 12:00:29;;;;;;;3.60;0.98;;;16.10;99.90;;;;;;5067119;28;20135;-91
2022/10/31 12:03:10;;;;;;;0.85;0.57;;;16.20;1.00;;;;;;5064806;28;20086;-90
2022/10/31 12:05:39;;;;;;;0.10;0.10;;;16.20;93.70;;;;;;5083857;28;20044;-91
2022/10/31 12:08:09;;;;;;;0.13;0.08;;;16.30;1.00;;;;;;5085353;28;20087;-90
2022/10/31 12:11:00;;;;;;;0.20;0.20;;;16.40;99.90;;;;;;5087036;28;20100;-92
2022/10/31 12:13:56;;;;;;;2.08;0.80;;;16.20;99.90;;;;;;5067011;28;20052;-91
2022/10/31 12:16:34;;;;;;;0.40;0.30;;;16.20;99.90;;;;;;5069316;28;20035;-91
2022/10/31 12:19:22;;;;;;;0.22;0.22;;;16.60;99.90;;;;;;5051700;28;20072;-90
2022/10/31 12:22:09;;;;;;;0.95;0.28;;;16.30;99.90;;;;;;5072325;28;20048;-90
2022/10/31 12:25:04;;;;;;;2.75;1.52;;;16.10;99.90;;;;;;5073459;28;20041;-91
2022/10/31 12:27:42;;;;;;;0.85;0.52;;;16.10;1.00;;;;;;5076404;28;20067;-90
2022/10/31 12:30:30;;;;;;;1.40;0.98;;;16.10;7.50;;;;;;5076072;28;20099;-90
2022/10/31 12:32:56;;;;;;;0.85;0.80;;;16.00;1.00;;;;;;5071272;28;20032;-90
2022/10/31 12:35:51;;;;;;;3.55;2.15;;;16.50;1.00;;;;;;5073610;28;20032;-90
2022/10/31 12:38:54;;;;;;;0.63;0.63;;;15.60;1.00;;;;;;5088794;28;20048;-90
2022/10/31 12:41:51;;;;;;;1.27;1.17;;;15.60;1.00;;;;;;5071966;28;20052;-90
2022/10/31 12:44:41;;;;;;;0.63;0.52;;;15.50;99.90;;;;;;5070090;28;20048;-90
2022/10/31 12:47:24;;;;;;;0.50;0.50;;;15.40;1.00;;;;;;5055171;28;20056;-91
2022/10/31 12:50:34;;;;;;;3.60;2.45;;;15.30;1.00;;;;;;5070337;28;20341;-91
2022/10/31 12:53:25;;;;;;;1.55;1.27;;;14.80;94.40;;;;;;5042877;28;20058;-91
2022/10/31 12:56:05;;;;;;;2.28;1.67;;;15.30;99.90;;;;;;5068280;28;20583;-89
2022/10/31 12:58:36;;;;;;;10.77;2.55;;;14.60;70.10;;;;;;5067547;28;20044;-91
2022/10/31 13:01:11;;;;;;;2.10;1.45;;;15.50;32.10;;;;;;5072383;28;20041;-90
2022/10/31 13:03:58;;;;;;;0.65;0.60;;;15.60;1.00;;;;;;5075906;28;20099;-91
2022/10/31 13:06:31;;;;;;;1.88;1.05;;;15.60;1.00;;;;;;5074709;28;20051;-91
2022/10/31 13:09:06;;;;;;;0.75;0.43;;;15.60;99.90;;;;;;5077678;28;20092;-91
2022/10/31 13:11:37;;;;;;;1.20;0.98;;;16.10;99.90;;;;;;5076820;28;20020;-91
2022/10/31 13:14:27;;;;;;;0.47;0.40;;;16.00;99.90;;;;;;5077362;28;20040;-90
2022/10/31 13:17:02;;;;;;;0.25;0.25;;;15.50;1.00;;;;;;5075579;28;20049;-90
2022/10/31 13:19:42;;;;;;;0.52;0.50;;;16.30;61.70;;;;;;5075909;28;20049;-90
2022/10/31 13:22:20;;;;;;;2.72;1.40;;;16.90;99.90;;;;;;5074542;28;20029;-90
2022/10/31 13:25:11;;;;;;;2.28;1.05;;;15.90;1.00;;;;;;5076598;28;20059;-90
2022/10/31 13:28:02;;;;;;;0.47;0.47;;;17.10;99.90;;;;;;5075906;28;20051;-90
2022/10/31 13:30:37;;;;;;;0.93;0.80;;;16.00;98.10;;;;;;5073427;28;20032;-91
2022/10/31 13:34:10;;;;;;;0.10;0.10;;;16.10;99.90;;;;;;5090355;28;20072;-90
2022/10/31 13:36:54;;;;;;;2.15;0.70;;;16.30;99.90;;;;;;5077373;28;20052;-92
2022/10/31 13:39:41;;;;;;;1.10;0.73;;;17.20;99.90;;;;;;5073835;28;20052;-91
2022/10/31 13:42:37;;;;;;;4.50;0.93;;;17.50;99.90;;;;;;5089229;28;20033;-91
2022/10/31 13:45:14;;;;;;;0.00;0.00;;;17.50;99.90;;;;;;5073129;28;20134;-91
2022/10/31 13:50:56;;;;;;;4.47;1.05;;;17.50;99.90;;;;;;5074316;28;20062;-90
2022/10/31 13:53:35;;;;;;;0.85;0.65;;;17.00;1.00;;;;;;5042826;28;20070;-90
2022/10/31 13:56:20;;;;;;;0.47;0.47;;;17.80;42.50;;;;;;5039758;28;20071;-89
2022/10/31 13:58:57;;;;;;;2.83;1.42;;;16.50;99.90;;;;;;5074060;28;20084;-93